Time;durP1;ratioP1;P1;durP2;ratioP2;P2;SDS_P1;SDS_P2;PMS_P1;PMS_P2;Temp;Humidity;BMP_temperature;BMP_pressure;BME280_temperature;BME280_humidity;BME280_pressure;Samples;Min_cycle;Max_cycle;Signal;HPM_P1;HPM_P2
2022/10/01 00:00:54;;;;;;;7.47;3.97;;;13.70;99.90;;;;;;4979874;28;25067;-74
2022/10/01 00:03:22;;;;;;;5.75;4.22;;;13.70;99.90;;;;;;4986770;28;25160;-71
2022/10/01 00:06:08;;;;;;;6.15;4.32;;;13.70;99.90;;;;;;4984369;28;25065;-72
2022/10/01 00:08:36;;;;;;;8.25;4.40;;;13.70;99.90;;;;;;4980636;28;25076;-73
2022/10/01 00:11:11;;;;;;;6.53;4.03;;;13.80;99.90;;;;;;4995655;28;25158;-72
2022/10/01 00:13:37;;;;;;;5.65;3.78;;;13.80;99.90;;;;;;4994307;28;25073;-74
2022/10/01 00:16:06;;;;;;;6.25;4.13;;;13.90;99.90;;;;;;5009469;28;25092;-75
2022/10/01 00:18:34;;;;;;;6.00;3.97;;;13.90;99.90;;;;;;5001876;28;25157;-73
2022/10/01 00:21:03;;;;;;;8.57;4.78;;;13.80;99.90;;;;;;5007727;28;25069;-77
2022/10/01 00:23:29;;;;;;;7.28;4.80;;;13.90;99.90;;;;;;5006571;28;25097;-72
2022/10/01 00:25:54;;;;;;;7.80;4.95;;;13.90;99.90;;;;;;4993988;28;25138;-75
2022/10/01 00:28:20;;;;;;;14.23;4.80;;;14.00;99.90;;;;;;4995404;28;25065;-75
2022/10/01 00:30:46;;;;;;;7.65;4.30;;;14.00;99.90;;;;;;4982568;28;25106;-74
2022/10/01 00:33:12;;;;;;;10.98;4.43;;;13.90;99.90;;;;;;4994615;28;25051;-75
2022/10/01 00:35:38;;;;;;;11.82;4.75;;;14.00;99.90;;;;;;4986282;28;25176;-76
2022/10/01 00:38:03;;;;;;;5.97;4.47;;;14.00;99.90;;;;;;4993259;28;25125;-74
2022/10/01 00:40:30;;;;;;;10.10;4.78;;;14.00;99.90;;;;;;4987456;28;25076;-74
2022/10/01 00:42:55;;;;;;;11.07;4.72;;;14.10;99.90;;;;;;5001041;28;25095;-74
2022/10/01 00:45:21;;;;;;;7.05;4.80;;;14.10;99.90;;;;;;4995135;28;25123;-76
2022/10/01 00:47:56;;;;;;;9.75;4.72;;;14.20;99.90;;;;;;4989612;28;25110;-74
2022/10/01 00:50:28;;;;;;;5.85;4.53;;;14.30;99.90;;;;;;4992455;28;25108;-75
2022/10/01 00:52:58;;;;;;;8.20;5.20;;;14.30;99.90;;;;;;4976159;28;25068;-74
2022/10/01 00:55:54;;;;;;;8.35;4.78;;;14.30;99.90;;;;;;4988025;28;25128;-73
2022/10/01 00:58:20;;;;;;;8.02;4.30;;;14.40;99.90;;;;;;4988830;28;25057;-74
2022/10/01 01:00:47;;;;;;;7.22;4.82;;;14.40;99.90;;;;;;5008078;28;25075;-75
2022/10/01 01:03:14;;;;;;;5.47;4.45;;;14.50;99.90;;;;;;4992904;28;25054;-73
2022/10/01 01:05:40;;;;;;;5.88;4.32;;;14.50;99.90;;;;;;4984151;28;25127;-73
2022/10/01 01:08:07;;;;;;;5.70;4.07;;;14.50;99.90;;;;;;5007219;28;25100;-73
2022/10/01 01:10:33;;;;;;;10.80;4.18;;;14.60;99.90;;;;;;4987156;28;25140;-72
2022/10/01 01:13:16;;;;;;;4.53;3.65;;;14.60;99.90;;;;;;4996724;28;25057;-73
2022/10/01 01:15:50;;;;;;;9.45;4.28;;;14.60;99.90;;;;;;4979231;28;25066;-74
2022/10/01 01:18:24;;;;;;;3.75;3.38;;;14.70;99.90;;;;;;4985181;28;25049;-74
2022/10/01 01:21:00;;;;;;;3.95;3.22;;;14.70;99.90;;;;;;5015989;28;25072;-72
2022/10/01 01:23:44;;;;;;;6.32;3.58;;;14.70;99.90;;;;;;4995215;28;25075;-73
2022/10/01 01:26:30;;;;;;;6.47;3.20;;;14.70;99.90;;;;;;4986296;28;25075;-73
2022/10/01 01:29:10;;;;;;;7.78;3.30;;;14.80;99.90;;;;;;4990475;28;25068;-73
2022/10/01 01:31:41;;;;;;;5.25;3.10;;;14.80;99.90;;;;;;4983703;28;25185;-74
2022/10/01 01:34:11;;;;;;;4.78;2.97;;;14.80;99.90;;;;;;4979748;28;25096;-71
2022/10/01 01:36:43;;;;;;;3.60;2.92;;;14.80;99.90;;;;;;4985293;28;25102;-72
2022/10/01 01:39:11;;;;;;;4.70;3.05;;;14.80;99.90;;;;;;4986566;28;25090;-72
2022/10/01 01:41:47;;;;;;;6.88;3.53;;;14.90;99.90;;;;;;4984349;28;25110;-75
2022/10/01 01:44:16;;;;;;;7.00;3.38;;;14.80;99.90;;;;;;4991685;28;25053;-71
2022/10/01 01:46:47;;;;;;;5.43;3.03;;;14.90;99.90;;;;;;4991077;28;25080;-73
2022/10/01 01:49:16;;;;;;;5.68;2.38;;;15.00;99.90;;;;;;4991353;28;25119;-70
2022/10/01 01:52:04;;;;;;;4.10;2.95;;;15.00;99.90;;;;;;4980304;28;25109;-73
2022/10/01 01:54:31;;;;;;;4.40;2.30;;;15.00;99.90;;;;;;4994666;28;25055;-72
2022/10/01 01:56:57;;;;;;;3.60;2.65;;;15.10;99.90;;;;;;4983625;28;25075;-72
2022/10/01 01:59:25;;;;;;;4.22;2.90;;;15.10;99.90;;;;;;4974674;28;25061;-72
2022/10/01 02:01:51;;;;;;;4.57;3.33;;;15.10;99.90;;;;;;4982407;28;25095;-74
2022/10/01 02:04:25;;;;;;;4.15;2.65;;;15.10;99.90;;;;;;4985832;28;25073;-73
2022/10/01 02:07:08;;;;;;;2.90;2.53;;;15.10;99.90;;;;;;4981841;28;25071;-74
2022/10/01 02:09:38;;;;;;;3.67;2.53;;;15.10;99.90;;;;;;4979691;28;25042;-72
2022/10/01 02:12:15;;;;;;;2.80;2.60;;;15.10;99.90;;;;;;5002699;28;25065;-75
2022/10/01 02:14:55;;;;;;;3.75;2.55;;;15.10;99.90;;;;;;5008274;28;25118;-72
2022/10/01 02:17:32;;;;;;;3.13;2.47;;;15.20;99.90;;;;;;4989333;28;25098;-73
2022/10/01 02:20:06;;;;;;;4.15;3.05;;;15.20;99.90;;;;;;4984279;28;25059;-72
2022/10/01 02:22:42;;;;;;;2.70;2.42;;;15.30;99.90;;;;;;4978916;28;25066;-73
2022/10/01 02:25:10;;;;;;;4.97;3.13;;;15.40;99.90;;;;;;4975671;28;25155;-70
2022/10/01 02:27:39;;;;;;;3.30;2.83;;;15.40;99.90;;;;;;4976947;28;25074;-72
2022/10/01 02:30:07;;;;;;;3.30;3.00;;;15.40;99.90;;;;;;4986099;28;25155;-73
2022/10/01 02:32:38;;;;;;;3.45;3.00;;;15.40;99.90;;;;;;4978481;28;25071;-73
2022/10/01 02:35:10;;;;;;;4.47;3.38;;;15.50;99.90;;;;;;4987640;28;25161;-72
2022/10/01 02:37:39;;;;;;;4.88;3.75;;;15.50;99.90;;;;;;5002289;28;25132;-73
2022/10/01 02:40:08;;;;;;;5.82;3.97;;;15.50;99.90;;;;;;4984979;28;25071;-72
2022/10/01 02:42:35;;;;;;;6.10;3.80;;;15.60;99.90;;;;;;4989292;28;25106;-71
2022/10/01 02:45:03;;;;;;;4.88;4.35;;;15.70;99.90;;;;;;4991021;28;25154;-72
2022/10/01 02:47:49;;;;;;;4.93;3.92;;;15.70;99.90;;;;;;4989374;28;25115;-70
2022/10/01 02:50:15;;;;;;;12.65;3.95;;;15.80;99.90;;;;;;4997666;28;25064;-74
2022/10/01 02:52:59;;;;;;;6.43;4.10;;;15.80;99.90;;;;;;4991702;28;25102;-72
2022/10/01 02:55:29;;;;;;;4.28;3.30;;;15.80;99.90;;;;;;4987672;28;25054;-74
2022/10/01 02:57:56;;;;;;;4.20;3.75;;;15.90;99.90;;;;;;4988001;28;25082;-72
2022/10/01 03:00:22;;;;;;;4.38;3.55;;;15.90;99.90;;;;;;4983148;28;25104;-72
2022/10/01 03:02:48;;;;;;;4.07;3.25;;;15.90;99.90;;;;;;4987033;28;25114;-73
2022/10/01 03:05:15;;;;;;;3.88;3.42;;;16.00;99.90;;;;;;5003566;28;25141;-73
2022/10/01 03:07:42;;;;;;;4.00;3.00;;;16.00;99.90;;;;;;5001329;28;25063;-73
2022/10/01 03:10:09;;;;;;;4.50;2.97;;;16.10;99.90;;;;;;4984056;28;25063;-72
2022/10/01 03:12:35;;;;;;;5.55;4.65;;;16.10;99.90;;;;;;4994823;28;25103;-74
2022/10/01 03:15:01;;;;;;;6.13;3.20;;;16.10;99.90;;;;;;5017802;28;25088;-71
2022/10/01 03:17:27;;;;;;;5.70;3.97;;;16.10;99.90;;;;;;4999200;28;25060;-71
2022/10/01 03:19:52;;;;;;;5.68;3.78;;;16.20;99.90;;;;;;5001431;28;25055;-74
2022/10/01 03:22:22;;;;;;;5.13;3.88;;;16.20;99.90;;;;;;4998139;28;25054;-72
2022/10/01 03:24:52;;;;;;;3.72;3.17;;;16.30;99.90;;;;;;4987947;28;25119;-73
2022/10/01 03:27:18;;;;;;;3.78;3.10;;;16.30;99.90;;;;;;4993003;28;25072;-72
2022/10/01 03:29:44;;;;;;;4.28;3.33;;;16.30;99.90;;;;;;4989000;28;25101;-71
2022/10/01 03:32:10;;;;;;;4.20;3.35;;;16.40;99.90;;;;;;4997961;28;25092;-73
2022/10/01 03:34:36;;;;;;;3.53;3.00;;;16.40;99.90;;;;;;4989029;28;25062;-72
2022/10/01 03:37:02;;;;;;;4.80;3.13;;;16.40;99.90;;;;;;4988767;28;25064;-71
2022/10/01 03:39:27;;;;;;;4.40;3.13;;;16.50;99.90;;;;;;4997872;28;25051;-73
2022/10/01 03:41:53;;;;;;;3.28;2.47;;;16.40;99.90;;;;;;4988329;28;25073;-71
2022/10/01 03:44:18;;;;;;;4.80;2.88;;;16.40;99.90;;;;;;4993392;28;25071;-70
2022/10/01 03:46:44;;;;;;;2.88;2.60;;;16.50;99.90;;;;;;5000325;28;25060;-72
2022/10/01 03:49:10;;;;;;;5.70;2.35;;;16.50;99.90;;;;;;5004616;28;25071;-70
2022/10/01 03:51:36;;;;;;;2.65;2.42;;;16.60;99.90;;;;;;4997980;28;25113;-71
2022/10/01 03:54:03;;;;;;;2.60;2.40;;;16.60;99.90;;;;;;4992745;28;25064;-71
2022/10/01 03:56:29;;;;;;;5.75;2.97;;;16.60;99.90;;;;;;5014673;28;25072;-70
2022/10/01 03:58:54;;;;;;;3.85;2.90;;;16.60;99.90;;;;;;4996035;28;25129;-71
2022/10/01 04:01:21;;;;;;;4.20;2.60;;;16.60;99.90;;;;;;4997825;28;25058;-71
2022/10/01 04:03:48;;;;;;;3.05;2.78;;;16.50;99.90;;;;;;4988365;28;25116;-73
2022/10/01 04:06:13;;;;;;;4.43;3.30;;;16.50;99.90;;;;;;4990143;28;25062;-71
2022/10/01 04:08:40;;;;;;;3.53;3.22;;;16.50;99.90;;;;;;4983695;28;25073;-72
2022/10/01 04:11:05;;;;;;;3.80;3.45;;;16.50;99.90;;;;;;4990484;28;25081;-71
2022/10/01 04:13:32;;;;;;;5.15;3.22;;;16.50;99.90;;;;;;4987021;28;25102;-72
2022/10/01 04:15:57;;;;;;;4.47;3.70;;;16.50;99.90;;;;;;4987687;28;25053;-72
2022/10/01 04:18:23;;;;;;;4.22;3.63;;;16.50;99.90;;;;;;4994142;28;25082;-71
2022/10/01 04:20:49;;;;;;;5.22;3.67;;;16.50;99.90;;;;;;4987161;28;25104;-72
2022/10/01 04:23:14;;;;;;;6.70;4.50;;;16.60;99.90;;;;;;4992407;28;25076;-72
2022/10/01 04:25:40;;;;;;;4.45;3.75;;;16.60;99.90;;;;;;4986994;28;25055;-72
2022/10/01 04:28:10;;;;;;;4.60;4.10;;;16.60;99.90;;;;;;4997299;28;25074;-72
2022/10/01 04:30:39;;;;;;;4.63;4.03;;;16.70;99.90;;;;;;4994480;28;25068;-71
2022/10/01 04:33:05;;;;;;;4.55;3.85;;;16.70;99.90;;;;;;4993227;28;25088;-71
2022/10/01 04:35:31;;;;;;;7.38;4.38;;;16.60;99.90;;;;;;5002940;28;25079;-71
2022/10/01 04:38:00;;;;;;;5.20;4.30;;;16.70;99.90;;;;;;4990776;28;25073;-71
2022/10/01 04:40:26;;;;;;;7.63;4.20;;;16.70;99.90;;;;;;4997081;28;25131;-71
2022/10/01 04:42:52;;;;;;;4.07;3.65;;;16.70;99.90;;;;;;4992000;28;25067;-72
2022/10/01 04:45:17;;;;;;;4.00;3.58;;;16.80;99.90;;;;;;5000419;28;25064;-72
2022/10/01 04:47:51;;;;;;;4.90;3.80;;;16.80;99.90;;;;;;4994830;28;25058;-72
2022/10/01 04:50:17;;;;;;;5.97;4.10;;;16.80;99.90;;;;;;5006625;28;25129;-72
2022/10/01 04:52:43;;;;;;;4.40;3.60;;;16.80;99.90;;;;;;4983802;28;25078;-74
2022/10/01 04:55:10;;;;;;;7.97;3.72;;;16.90;99.90;;;;;;4997785;28;25063;-70
2022/10/01 04:57:37;;;;;;;3.92;3.53;;;16.90;99.90;;;;;;4994607;28;25077;-70
2022/10/01 05:00:05;;;;;;;4.65;3.10;;;16.90;99.90;;;;;;5003346;28;25053;-72
2022/10/01 05:02:33;;;;;;;5.43;3.33;;;17.00;99.90;;;;;;4993040;28;25089;-71
2022/10/01 05:05:02;;;;;;;5.45;3.38;;;17.00;99.90;;;;;;4998925;28;25077;-72
2022/10/01 05:07:27;;;;;;;3.53;3.00;;;17.10;99.90;;;;;;5008800;28;25071;-72
2022/10/01 05:09:53;;;;;;;4.82;3.05;;;17.00;99.90;;;;;;5010372;28;25133;-71
2022/10/01 05:12:18;;;;;;;8.23;4.10;;;17.00;99.90;;;;;;5000857;28;25142;-71
2022/10/01 05:14:44;;;;;;;4.22;3.35;;;17.00;99.90;;;;;;4996585;28;25043;-71
2022/10/01 05:17:09;;;;;;;4.80;3.40;;;17.10;99.90;;;;;;5005409;28;25062;-71
2022/10/01 05:19:35;;;;;;;3.47;2.95;;;17.10;99.90;;;;;;5001611;28;25059;-71
2022/10/01 05:22:00;;;;;;;4.55;3.25;;;17.20;99.90;;;;;;5001432;28;25131;-73
2022/10/01 05:24:26;;;;;;;5.13;3.47;;;17.10;99.90;;;;;;5001127;28;25109;-73
2022/10/01 05:26:54;;;;;;;5.72;3.38;;;17.10;99.90;;;;;;5007663;28;25073;-71
2022/10/01 05:29:20;;;;;;;7.10;3.60;;;17.10;99.90;;;;;;4994576;28;25050;-73
2022/10/01 05:31:45;;;;;;;5.18;3.60;;;17.10;99.90;;;;;;4992897;28;25062;-70
2022/10/01 05:34:11;;;;;;;7.30;3.72;;;17.10;99.90;;;;;;4990751;28;25090;-71
2022/10/01 05:36:37;;;;;;;6.05;3.78;;;17.10;99.90;;;;;;4998735;28;25099;-71
2022/10/01 05:39:03;;;;;;;10.05;4.45;;;17.20;99.90;;;;;;4999969;28;25103;-71
2022/10/01 05:41:28;;;;;;;12.68;4.28;;;17.10;99.90;;;;;;4987089;28;25055;-71
2022/10/01 05:43:54;;;;;;;11.88;4.07;;;17.10;99.90;;;;;;4988999;28;25062;-72
2022/10/01 05:46:20;;;;;;;11.35;4.55;;;17.10;99.90;;;;;;4998325;28;25078;-71
2022/10/01 05:48:50;;;;;;;5.90;4.57;;;17.00;99.90;;;;;;5000063;28;25102;-72
2022/10/01 05:51:15;;;;;;;6.32;4.40;;;17.00;99.90;;;;;;4998408;28;25052;-72
2022/10/01 05:53:41;;;;;;;9.88;4.43;;;17.00;99.90;;;;;;5001344;28;25080;-71
2022/10/01 05:56:07;;;;;;;7.05;4.57;;;17.00;99.90;;;;;;4989902;28;25066;-68
2022/10/01 05:58:33;;;;;;;9.63;4.10;;;17.10;99.90;;;;;;4999932;28;25073;-73
2022/10/01 06:00:58;;;;;;;9.25;5.28;;;17.20;99.90;;;;;;4994645;28;25112;-71
2022/10/01 06:03:27;;;;;;;7.45;4.53;;;17.20;99.90;;;;;;4987913;28;25106;-72
2022/10/01 06:05:53;;;;;;;10.23;4.80;;;17.20;99.90;;;;;;5002932;28;25062;-71
2022/10/01 06:08:18;;;;;;;10.45;4.43;;;17.10;99.90;;;;;;4991587;28;25088;-71
2022/10/01 06:10:45;;;;;;;7.97;4.35;;;17.10;99.90;;;;;;5002308;28;25081;-71
2022/10/01 06:13:15;;;;;;;7.45;4.70;;;17.10;99.90;;;;;;4996135;28;25059;-71
2022/10/01 06:15:40;;;;;;;7.28;4.32;;;17.10;99.90;;;;;;4994626;28;25080;-73
2022/10/01 06:18:08;;;;;;;8.00;4.80;;;17.10;99.90;;;;;;4995939;28;25127;-73
2022/10/01 06:20:35;;;;;;;9.85;4.35;;;17.10;99.90;;;;;;4984421;28;25069;-71
2022/10/01 06:23:01;;;;;;;6.25;4.68;;;17.10;99.90;;;;;;4991465;28;25073;-72
2022/10/01 06:25:28;;;;;;;6.95;4.78;;;17.20;99.90;;;;;;5000715;28;25101;-73
2022/10/01 06:27:56;;;;;;;5.72;4.25;;;17.30;99.90;;;;;;4999396;28;25051;-73
2022/10/01 06:30:27;;;;;;;13.27;4.57;;;17.30;99.90;;;;;;5017148;28;25061;-72
2022/10/01 06:32:58;;;;;;;8.75;4.28;;;17.50;99.90;;;;;;5013208;28;25076;-74
2022/10/01 06:35:23;;;;;;;8.75;4.85;;;17.60;99.90;;;;;;5012099;28;25071;-74
2022/10/01 06:37:50;;;;;;;8.73;4.05;;;17.50;99.90;;;;;;5002517;28;25073;-72
2022/10/01 06:40:15;;;;;;;9.07;4.43;;;17.60;99.90;;;;;;5004308;28;25082;-73
2022/10/01 06:42:49;;;;;;;13.75;4.43;;;17.60;99.90;;;;;;5006983;28;25055;-73
2022/10/01 06:45:16;;;;;;;10.02;4.20;;;17.70;99.90;;;;;;5001458;28;25080;-73
2022/10/01 06:47:43;;;;;;;5.90;3.95;;;17.80;99.90;;;;;;5004962;28;25077;-74
2022/10/01 06:50:09;;;;;;;7.47;3.25;;;17.70;99.90;;;;;;5014911;28;25095;-73
2022/10/01 06:52:47;;;;;;;11.75;4.40;;;17.80;99.90;;;;;;5004650;28;25064;-73
2022/10/01 06:55:15;;;;;;;7.72;3.83;;;17.80;99.90;;;;;;5004089;28;25082;-73
2022/10/01 06:57:40;;;;;;;8.57;3.92;;;17.80;99.90;;;;;;5006257;28;25075;-72
2022/10/01 07:00:06;;;;;;;9.27;4.47;;;17.80;99.90;;;;;;5003939;28;25069;-73
2022/10/01 07:02:32;;;;;;;7.68;4.32;;;18.00;99.90;;;;;;5012054;28;25050;-73
2022/10/01 07:04:58;;;;;;;5.78;3.80;;;18.00;99.90;;;;;;5002771;28;25141;-73
2022/10/01 07:07:31;;;;;;;9.35;3.97;;;18.10;99.90;;;;;;4998113;28;25148;-75
2022/10/01 07:09:57;;;;;;;10.50;4.20;;;18.00;99.90;;;;;;5008347;28;25068;-74
2022/10/01 07:12:24;;;;;;;6.93;3.50;;;17.90;99.90;;;;;;5003420;28;25052;-76
2022/10/01 07:14:49;;;;;;;8.98;2.63;;;17.70;99.90;;;;;;5011210;28;25079;-73
2022/10/01 07:17:15;;;;;;;4.13;2.28;;;17.50;99.90;;;;;;5008701;28;25060;-73
2022/10/01 07:19:41;;;;;;;6.63;2.40;;;17.40;99.90;;;;;;4995119;28;25084;-73
2022/10/01 07:22:07;;;;;;;4.57;2.50;;;17.50;99.90;;;;;;4995652;28;25090;-73
2022/10/01 07:24:33;;;;;;;9.88;2.60;;;17.50;99.90;;;;;;4994468;28;25067;-72
2022/10/01 07:26:58;;;;;;;6.53;2.42;;;17.60;99.90;;;;;;4984738;28;25073;-71
2022/10/01 07:29:24;;;;;;;14.57;2.95;;;17.70;99.90;;;;;;4995793;28;25117;-73
2022/10/01 07:31:54;;;;;;;13.85;3.08;;;17.80;99.90;;;;;;4993788;28;25061;-73
2022/10/01 07:34:21;;;;;;;9.80;2.78;;;17.80;99.90;;;;;;4998879;28;25145;-73
2022/10/01 07:36:48;;;;;;;6.55;2.80;;;17.90;99.90;;;;;;4990546;28;25066;-73
2022/10/01 07:39:13;;;;;;;9.00;2.38;;;17.90;99.90;;;;;;5002451;28;25077;-71
2022/10/01 07:41:40;;;;;;;7.50;2.25;;;18.10;99.90;;;;;;4992137;28;25074;-72
2022/10/01 07:44:05;;;;;;;6.68;2.28;;;18.10;99.90;;;;;;4990041;28;25056;-72
2022/10/01 07:46:31;;;;;;;8.07;2.00;;;18.10;99.90;;;;;;4988401;28;25063;-74
2022/10/01 07:48:57;;;;;;;6.68;1.73;;;18.20;99.90;;;;;;4992645;28;25077;-72
2022/10/01 07:51:23;;;;;;;5.90;1.83;;;18.10;99.90;;;;;;4985860;28;25174;-73
2022/10/01 07:53:49;;;;;;;10.25;2.10;;;18.20;99.90;;;;;;5003085;28;25056;-74
2022/10/01 07:56:15;;;;;;;2.70;1.58;;;18.20;99.90;;;;;;5005195;28;25127;-72
2022/10/01 07:58:42;;;;;;;7.53;1.85;;;18.20;99.90;;;;;;5005308;28;25131;-72
2022/10/01 08:01:08;;;;;;;5.25;1.80;;;18.30;99.90;;;;;;5006529;28;25138;-73
2022/10/01 08:03:34;;;;;;;5.95;1.70;;;18.10;99.90;;;;;;4987629;28;25086;-76
2022/10/01 08:06:02;;;;;;;5.35;1.92;;;18.10;99.90;;;;;;4998587;28;25057;-73
2022/10/01 08:08:29;;;;;;;4.72;1.67;;;18.20;99.90;;;;;;5007927;28;25080;-76
2022/10/01 08:10:55;;;;;;;6.43;2.03;;;18.30;99.90;;;;;;5004341;28;25067;-75
2022/10/01 08:13:23;;;;;;;12.02;2.10;;;18.60;99.90;;;;;;4997336;28;25057;-75
2022/10/01 08:15:52;;;;;;;11.13;1.88;;;18.70;99.90;;;;;;4994649;28;25130;-76
2022/10/01 08:18:18;;;;;;;12.75;2.17;;;18.70;99.90;;;;;;4990249;28;25095;-74
2022/10/01 08:20:44;;;;;;;9.23;2.03;;;18.70;99.90;;;;;;4999014;28;25041;-75
2022/10/01 08:23:13;;;;;;;8.15;1.67;;;18.70;99.90;;;;;;4997035;28;25061;-74
2022/10/01 08:25:39;;;;;;;10.07;2.20;;;18.70;99.90;;;;;;5000905;28;25135;-76
2022/10/01 08:28:06;;;;;;;10.57;2.08;;;19.10;99.90;;;;;;4998133;28;25065;-72
2022/10/01 08:30:32;;;;;;;7.80;1.70;;;19.20;99.90;;;;;;4994420;28;25058;-73
2022/10/01 08:32:59;;;;;;;7.10;1.70;;;19.40;99.90;;;;;;4997009;28;25062;-75
2022/10/01 08:35:26;;;;;;;9.05;2.78;;;19.20;99.90;;;;;;5001298;28;25076;-76
2022/10/01 08:37:52;;;;;;;9.93;1.88;;;19.60;99.90;;;;;;5002795;28;25178;-72
2022/10/01 08:40:20;;;;;;;8.23;1.80;;;19.40;99.90;;;;;;5003089;28;25080;-71
2022/10/01 08:42:58;;;;;;;12.00;2.30;;;19.00;99.90;;;;;;5008194;28;25081;-72
2022/10/01 08:45:43;;;;;;;6.78;2.08;;;18.20;99.90;;;;;;5004166;28;25046;-73
2022/10/01 08:48:30;;;;;;;10.38;2.00;;;17.60;99.90;;;;;;5001136;28;25124;-73
2022/10/01 08:51:06;;;;;;;18.67;2.35;;;17.40;99.90;;;;;;5002915;28;25097;-78
2022/10/01 08:53:45;;;;;;;13.25;2.22;;;17.00;99.90;;;;;;5004098;28;25069;-72
2022/10/01 08:56:37;;;;;;;7.05;1.52;;;17.00;99.90;;;;;;5000191;28;25068;-74
2022/10/01 08:59:12;;;;;;;14.00;2.92;;;16.90;99.90;;;;;;4981617;28;25084;-73
2022/10/01 09:01:38;;;;;;;9.18;1.92;;;17.20;99.90;;;;;;4997462;28;25064;-72
2022/10/01 09:04:04;;;;;;;15.20;2.40;;;17.00;99.90;;;;;;4990625;28;25062;-72
2022/10/01 09:06:30;;;;;;;13.60;1.90;;;16.80;99.90;;;;;;4985715;28;25135;-71
2022/10/01 09:09:28;;;;;;;5.35;1.52;;;16.60;99.90;;;;;;4986065;28;25061;-71
2022/10/01 09:12:03;;;;;;;10.48;2.70;;;16.60;99.90;;;;;;4986367;28;25064;-72
2022/10/01 09:14:42;;;;;;;12.57;2.28;;;16.60;99.90;;;;;;5000118;28;25067;-71
2022/10/01 09:17:18;;;;;;;8.52;2.08;;;16.60;99.90;;;;;;4981535;28;25063;-71
2022/10/01 09:19:57;;;;;;;11.93;1.95;;;16.70;99.90;;;;;;4995866;28;25137;-72
2022/10/01 09:22:46;;;;;;;11.52;2.13;;;16.70;99.90;;;;;;4994424;28;25076;-74
2022/10/01 09:25:21;;;;;;;15.95;3.28;;;16.80;99.90;;;;;;4981112;28;25122;-71
2022/10/01 09:27:47;;;;;;;14.05;1.85;;;16.80;99.90;;;;;;4980996;28;25048;-73
2022/10/01 09:30:20;;;;;;;6.93;1.58;;;16.80;99.90;;;;;;4991903;28;25066;-73
2022/10/01 09:32:57;;;;;;;12.30;1.40;;;16.70;99.90;;;;;;4977050;28;25144;-71
2022/10/01 09:35:43;;;;;;;12.88;2.25;;;16.40;99.90;;;;;;4981171;28;25144;-72
2022/10/01 09:38:21;;;;;;;12.10;1.77;;;16.40;99.90;;;;;;4975123;28;25088;-78
2022/10/01 09:40:55;;;;;;;12.52;1.63;;;16.30;99.90;;;;;;4977430;28;25065;-71
2022/10/01 09:43:37;;;;;;;7.03;1.80;;;16.40;99.90;;;;;;4977196;28;25050;-70
2022/10/01 09:46:05;;;;;;;16.90;1.80;;;16.40;99.90;;;;;;4976846;28;25070;-72
2022/10/01 09:49:02;;;;;;;7.82;1.27;;;16.50;99.90;;;;;;4979191;28;25071;-70
2022/10/01 09:51:41;;;;;;;3.03;1.20;;;16.60;99.90;;;;;;4981175;28;25067;-70
2022/10/01 09:54:30;;;;;;;7.82;1.45;;;16.80;99.90;;;;;;4983931;28;25072;-70
2022/10/01 09:57:07;;;;;;;7.63;1.75;;;17.00;99.90;;;;;;4980261;28;25053;-71
2022/10/01 09:59:38;;;;;;;5.80;1.60;;;16.80;99.90;;;;;;4979834;28;25071;-71
2022/10/01 10:02:15;;;;;;;13.35;3.30;;;16.60;99.90;;;;;;4980679;28;25121;-70
2022/10/01 10:04:40;;;;;;;16.40;3.03;;;16.40;99.90;;;;;;4993632;28;25106;-72
2022/10/01 10:07:06;;;;;;;13.25;2.20;;;16.40;99.90;;;;;;4992966;28;25116;-71
2022/10/01 10:09:34;;;;;;;8.82;2.25;;;16.30;99.90;;;;;;4992430;28;25071;-70
2022/10/01 10:12:01;;;;;;;7.95;1.85;;;16.10;99.90;;;;;;4987022;28;25144;-72
2022/10/01 10:14:33;;;;;;;7.93;1.48;;;16.10;99.90;;;;;;4978156;28;25112;-69
2022/10/01 10:17:06;;;;;;;5.97;2.28;;;16.20;99.90;;;;;;4995724;28;25092;-70
2022/10/01 10:19:32;;;;;;;10.98;2.22;;;16.20;99.90;;;;;;4994442;28;25061;-70
2022/10/01 10:22:10;;;;;;;13.02;2.28;;;16.20;99.90;;;;;;4997548;28;25050;-70
2022/10/01 10:24:36;;;;;;;5.60;1.73;;;16.20;99.90;;;;;;4994796;28;25066;-71
2022/10/01 10:27:06;;;;;;;4.60;1.30;;;16.40;99.90;;;;;;4981843;28;25073;-71
2022/10/01 10:29:33;;;;;;;7.78;1.70;;;16.50;99.90;;;;;;4994875;28;25052;-71
2022/10/01 10:32:17;;;;;;;11.85;1.75;;;16.70;99.90;;;;;;4983380;28;25087;-72
2022/10/01 10:34:45;;;;;;;8.63;2.00;;;16.90;99.90;;;;;;4980190;28;25129;-72
2022/10/01 10:37:24;;;;;;;9.15;1.88;;;16.90;99.90;;;;;;4975048;28;25152;-74
2022/10/01 10:39:52;;;;;;;6.43;1.52;;;16.60;99.90;;;;;;4984496;28;25106;-72
2022/10/01 10:42:18;;;;;;;9.02;1.40;;;16.60;99.90;;;;;;4997500;28;25069;-73
2022/10/01 10:44:48;;;;;;;8.30;2.33;;;16.30;99.90;;;;;;4996511;28;25056;-70
2022/10/01 10:47:16;;;;;;;8.15;2.20;;;16.30;99.90;;;;;;4997610;28;25057;-71
2022/10/01 10:49:44;;;;;;;8.27;2.47;;;16.20;99.90;;;;;;4992660;28;25103;-71
2022/10/01 10:52:28;;;;;;;10.55;2.58;;;16.10;99.90;;;;;;4990519;28;25050;-72
2022/10/01 10:54:55;;;;;;;7.22;2.00;;;16.00;99.90;;;;;;4994406;28;25064;-71
2022/10/01 10:57:26;;;;;;;16.77;2.25;;;16.10;99.90;;;;;;5000882;28;25060;-71
2022/10/01 11:00:10;;;;;;;9.20;2.08;;;16.30;99.90;;;;;;4987069;28;25141;-70
2022/10/01 11:02:39;;;;;;;8.57;1.73;;;16.70;99.90;;;;;;5003828;28;25066;-71
2022/10/01 11:05:19;;;;;;;7.40;1.80;;;16.80;99.90;;;;;;5003300;28;25070;-70
2022/10/01 11:07:46;;;;;;;8.15;1.63;;;16.80;99.90;;;;;;5005224;28;25090;-74
2022/10/01 11:10:21;;;;;;;10.65;2.10;;;16.50;99.90;;;;;;5008809;28;25074;-71
2022/10/01 11:13:17;;;;;;;15.23;1.80;;;16.30;99.90;;;;;;4996884;28;25058;-70
2022/10/01 11:16:20;;;;;;;10.98;1.80;;;16.50;99.90;;;;;;5005393;28;25076;-70
2022/10/01 11:19:26;;;;;;;8.55;1.73;;;17.00;99.90;;;;;;5002104;28;25052;-70
2022/10/01 11:22:01;;;;;;;8.75;1.65;;;17.70;99.90;;;;;;5005616;28;25064;-71
2022/10/01 11:24:34;;;;;;;14.00;2.65;;;17.90;99.90;;;;;;4991840;28;25066;-71
2022/10/01 11:27:26;;;;;;;12.30;2.53;;;17.60;99.90;;;;;;4991142;28;25081;-70
2022/10/01 11:30:21;;;;;;;6.88;1.30;;;17.90;99.90;;;;;;5003784;28;25063;-72
2022/10/01 11:33:09;;;;;;;5.50;1.42;;;18.00;99.90;;;;;;4995238;28;25139;-72
2022/10/01 11:35:45;;;;;;;5.03;1.80;;;18.30;99.90;;;;;;4999608;28;25060;-72
2022/10/01 11:38:36;;;;;;;14.38;2.17;;;18.20;99.90;;;;;;4994186;28;25084;-74
2022/10/01 11:41:20;;;;;;;7.03;1.65;;;18.10;99.90;;;;;;4992118;28;25065;-70
2022/10/01 11:43:53;;;;;;;9.77;1.63;;;18.00;99.90;;;;;;4991702;28;25065;-71
2022/10/01 11:46:32;;;;;;;14.40;1.73;;;18.00;99.90;;;;;;4990780;28;25084;-72
2022/10/01 11:49:18;;;;;;;17.20;3.13;;;18.00;99.90;;;;;;4986599;28;25065;-73
2022/10/01 11:51:48;;;;;;;10.77;1.73;;;18.50;99.90;;;;;;4987094;28;25074;-71
2022/10/01 11:54:20;;;;;;;6.35;1.58;;;18.40;99.90;;;;;;4983174;28;25151;-71
2022/10/01 11:59:59;;;;;;;9.30;1.95;;;18.20;99.90;;;;;;4999680;28;25150;-73
2022/10/01 12:02:58;;;;;;;5.68;1.70;;;18.20;99.90;;;;;;4991048;28;25161;-73
2022/10/01 12:05:30;;;;;;;11.13;2.00;;;17.50;99.90;;;;;;4989495;28;25054;-72
2022/10/01 12:08:15;;;;;;;14.45;2.28;;;17.40;99.90;;;;;;5011385;28;25060;-70
2022/10/01 12:10:49;;;;;;;10.85;1.85;;;18.10;99.90;;;;;;4982675;28;25052;-71
2022/10/01 12:13:15;;;;;;;17.98;2.03;;;18.60;99.90;;;;;;4990421;28;25068;-70
2022/10/01 12:16:14;;;;;;;8.85;1.95;;;18.40;99.90;;;;;;4991935;28;25085;-73
2022/10/01 12:18:40;;;;;;;3.58;1.33;;;18.20;99.90;;;;;;4991162;28;25083;-71
2022/10/01 12:21:18;;;;;;;11.90;1.92;;;18.60;99.90;;;;;;4982365;28;25132;-71
2022/10/01 12:24:10;;;;;;;11.85;1.52;;;18.70;99.90;;;;;;4988282;28;25085;-73
2022/10/01 12:26:49;;;;;;;7.35;1.75;;;18.40;99.90;;;;;;4991275;28;25065;-72
2022/10/01 12:29:41;;;;;;;14.88;1.98;;;18.20;99.90;;;;;;4998668;28;25086;-68
2022/10/01 12:32:23;;;;;;;6.30;2.13;;;17.90;99.90;;;;;;4989273;28;25101;-71
2022/10/01 12:35:24;;;;;;;7.28;1.90;;;17.50;99.90;;;;;;4990005;28;25061;-70
2022/10/01 12:38:23;;;;;;;8.57;1.50;;;18.00;99.90;;;;;;4986811;28;25082;-70
2022/10/01 12:41:33;;;;;;;10.13;1.73;;;18.60;99.90;;;;;;4991681;28;25122;-71
2022/10/01 12:44:09;;;;;;;7.65;2.22;;;18.80;99.90;;;;;;4961276;28;25079;-70
2022/10/01 12:47:05;;;;;;;7.88;1.98;;;19.00;99.90;;;;;;4993228;28;25069;-71
2022/10/01 12:49:55;;;;;;;12.02;1.92;;;19.10;99.90;;;;;;4980198;28;25083;-73
2022/10/01 12:52:38;;;;;;;8.05;1.63;;;18.10;99.90;;;;;;4991216;28;25062;-71
2022/10/01 12:55:15;;;;;;;10.55;1.75;;;18.50;99.90;;;;;;4989760;28;25074;-69
2022/10/01 12:57:52;;;;;;;14.38;3.22;;;18.70;99.90;;;;;;4985370;28;25074;-73
2022/10/01 13:00:22;;;;;;;7.88;2.08;;;18.30;99.90;;;;;;4989651;28;25088;-70
2022/10/01 13:03:03;;;;;;;10.88;1.73;;;18.40;99.90;;;;;;4977038;28;25134;-72
2022/10/01 13:05:59;;;;;;;6.57;1.80;;;18.60;99.90;;;;;;4986014;28;25105;-71
2022/10/01 13:08:35;;;;;;;10.10;1.70;;;18.80;99.90;;;;;;4995367;28;25065;-71
2022/10/01 13:11:26;;;;;;;8.07;2.00;;;19.00;99.90;;;;;;4991600;28;25154;-71